createdAt,value
2019-02-19T00:00:32.822Z,31.40
2019-02-19T00:02:59.066Z,31.40
2019-02-19T00:05:25.466Z,31.40
2019-02-19T00:07:51.695Z,31.40
2019-02-19T00:10:17.968Z,31.40
2019-02-19T00:12:44.357Z,31.50
2019-02-19T00:15:10.602Z,31.50
2019-02-19T00:17:38.296Z,31.70
2019-02-19T00:20:04.727Z,31.50
2019-02-19T00:22:31.147Z,31.50
2019-02-19T00:24:57.592Z,31.60
2019-02-19T00:27:24.007Z,31.60
2019-02-19T00:29:50.260Z,31.60
2019-02-19T00:32:17.143Z,31.60
2019-02-19T00:34:43.532Z,31.60
2019-02-19T00:37:09.923Z,31.60
2019-02-19T00:39:36.141Z,31.60
2019-02-19T00:42:02.387Z,31.60
2019-02-19T00:44:28.650Z,31.60
2019-02-19T00:46:55.049Z,31.60
2019-02-19T00:49:21.278Z,31.60
2019-02-19T00:51:47.484Z,31.70
2019-02-19T00:54:13.769Z,31.70
2019-02-19T00:56:40.405Z,31.60
2019-02-19T00:59:06.798Z,31.60
2019-02-19T01:01:33.068Z,31.60
2019-02-19T01:03:59.472Z,31.60
2019-02-19T01:06:25.916Z,31.60
2019-02-19T01:08:52.144Z,31.60
2019-02-19T01:11:18.575Z,31.70
2019-02-19T01:13:44.995Z,31.70
2019-02-19T01:16:11.223Z,31.80
2019-02-19T01:18:37.471Z,31.70
2019-02-19T01:21:04.110Z,31.70
2019-02-19T01:23:30.560Z,31.70
2019-02-19T01:25:56.949Z,31.70
2019-02-19T01:28:23.175Z,31.80
2019-02-19T01:30:49.417Z,31.80
2019-02-19T01:33:16.731Z,31.80
2019-02-19T01:35:43.083Z,31.80
2019-02-19T01:38:09.353Z,31.80
2019-02-19T01:40:35.795Z,31.90
2019-02-19T01:43:02.454Z,31.90
2019-02-19T01:45:34.118Z,31.90
2019-02-19T01:47:55.274Z,31.90
2019-02-19T01:50:21.502Z,31.90
2019-02-19T01:52:47.729Z,32.00
2019-02-19T01:55:13.941Z,32.00
2019-02-19T01:57:40.195Z,32.10
2019-02-19T02:00:06.624Z,32.00
2019-02-19T02:02:33.055Z,32.20
2019-02-19T02:04:59.510Z,32.20
2019-02-19T02:07:25.906Z,32.20
2019-02-19T02:09:52.111Z,32.20
2019-02-19T02:12:18.363Z,32.30
2019-02-19T02:14:44.591Z,32.40
2019-02-19T02:17:10.846Z,32.30
2019-02-19T02:19:37.231Z,32.40
2019-02-19T02:22:03.472Z,32.50
2019-02-19T02:24:29.707Z,32.40
2019-02-19T02:26:56.528Z,32.40
2019-02-19T02:29:22.789Z,32.50
2019-02-19T02:31:49.207Z,32.50
2019-02-19T02:34:15.454Z,32.50
2019-02-19T02:36:41.916Z,32.60
2019-02-19T02:39:08.319Z,32.60
2019-02-19T02:41:34.734Z,32.60
2019-02-19T02:44:01.176Z,32.60
2019-02-19T02:46:27.383Z,32.70
2019-02-19T02:48:53.607Z,32.70
2019-02-19T02:51:19.848Z,32.70
2019-02-19T02:53:46.092Z,32.80
2019-02-19T02:56:12.355Z,32.90
2019-02-19T02:58:38.755Z,32.90
2019-02-19T03:01:06.626Z,33.10
2019-02-19T03:03:33.664Z,33.10
2019-02-19T03:05:59.887Z,33.00
2019-02-19T03:08:26.160Z,33.10
2019-02-19T03:10:52.572Z,33.20
2019-02-19T03:13:18.791Z,33.20
2019-02-19T03:15:45.003Z,33.20
2019-02-19T03:18:11.253Z,33.30
2019-02-19T03:20:37.480Z,33.30
2019-02-19T03:23:03.695Z,33.40
2019-02-19T03:25:29.965Z,33.50
2019-02-19T03:27:56.376Z,33.50
2019-02-19T03:30:22.832Z,34.10
2019-02-19T03:32:49.249Z,33.50
2019-02-19T03:35:15.904Z,33.60
2019-02-19T03:37:42.301Z,33.60
2019-02-19T03:40:09.348Z,33.80
2019-02-19T03:42:35.783Z,33.70
2019-02-19T03:45:02.834Z,33.90
2019-02-19T03:47:30.115Z,34.00
2019-02-19T03:49:56.504Z,33.90
2019-02-19T03:52:22.980Z,33.90
2019-02-19T03:54:49.425Z,33.80
2019-02-19T03:57:15.819Z,33.90
2019-02-19T03:59:42.100Z,34.10
2019-02-19T04:02:08.491Z,34.00
2019-02-19T04:04:34.699Z,34.00
2019-02-19T04:07:00.924Z,34.10
2019-02-19T04:09:27.199Z,34.10
2019-02-19T04:11:53.990Z,34.80
2019-02-19T04:14:20.228Z,34.10
2019-02-19T04:16:46.463Z,34.20
2019-02-19T04:19:14.333Z,34.30
2019-02-19T04:21:40.772Z,34.20
2019-02-19T04:24:07.225Z,34.10
2019-02-19T04:26:33.647Z,34.30
2019-02-19T04:29:00.060Z,34.10
2019-02-19T04:31:27.109Z,34.50
2019-02-19T04:33:55.025Z,34.40
2019-02-19T04:36:21.387Z,34.30
2019-02-19T04:38:47.637Z,34.20
2019-02-19T04:41:14.091Z,34.20
2019-02-19T04:43:40.504Z,34.20
2019-02-19T04:46:06.976Z,34.30
2019-02-19T04:48:33.158Z,34.20
2019-02-19T04:50:59.610Z,34.30
2019-02-19T04:53:26.019Z,34.30
2019-02-19T04:55:53.898Z,34.40
2019-02-19T04:58:20.124Z,34.30
2019-02-19T05:00:46.352Z,34.20
2019-02-19T05:03:12.615Z,34.30
2019-02-19T05:05:39.026Z,34.30
2019-02-19T05:08:05.250Z,34.40
2019-02-19T05:10:32.179Z,34.70
2019-02-19T05:12:58.517Z,34.40
2019-02-19T05:15:24.734Z,34.60
2019-02-19T05:17:52.606Z,34.80
2019-02-19T05:20:19.079Z,34.60
2019-02-19T05:22:45.462Z,34.70
2019-02-19T05:25:11.948Z,34.80
2019-02-19T05:27:38.378Z,34.70
2019-02-19T05:30:05.021Z,34.70
2019-02-19T05:32:31.655Z,34.90
2019-02-19T05:34:58.908Z,35.00
2019-02-19T05:37:25.153Z,35.00
2019-02-19T05:39:51.543Z,35.00
2019-02-19T05:42:18.026Z,35.10
2019-02-19T05:44:45.021Z,35.30
2019-02-19T05:47:11.243Z,35.30
2019-02-19T05:49:37.666Z,35.40
2019-02-19T05:52:03.922Z,35.30
2019-02-19T05:54:30.579Z,35.40
2019-02-19T05:56:56.985Z,35.50
2019-02-19T05:59:23.206Z,35.50
2019-02-19T06:01:49.430Z,35.80
2019-02-19T06:04:16.457Z,35.90
2019-02-19T06:06:42.948Z,35.70
2019-02-19T06:09:09.353Z,36.10
2019-02-19T06:11:36.416Z,36.10
2019-02-19T06:14:02.858Z,36.00
2019-02-19T06:16:29.264Z,36.10
2019-02-19T06:18:55.531Z,36.10
2019-02-19T06:21:21.923Z,36.20
2019-02-19T06:23:48.372Z,36.10
2019-02-19T06:26:14.823Z,36.10
2019-02-19T06:28:41.256Z,36.00
2019-02-19T06:31:07.672Z,36.20
2019-02-19T06:33:34.090Z,36.20
2019-02-19T06:36:00.296Z,36.10
2019-02-19T06:38:26.531Z,36.10
2019-02-19T06:40:54.393Z,36.30
2019-02-19T06:43:20.672Z,36.10
2019-02-19T06:45:47.043Z,36.20
2019-02-19T06:48:13.307Z,36.30
2019-02-19T06:50:39.715Z,36.40
2019-02-19T06:53:05.983Z,36.30
2019-02-19T06:55:32.431Z,36.50
2019-02-19T06:57:58.863Z,36.50
2019-02-19T07:00:25.295Z,36.50
2019-02-19T07:02:51.729Z,36.50
2019-02-19T07:05:18.119Z,36.40
2019-02-19T07:07:46.021Z,36.70
2019-02-19T07:10:12.432Z,36.50
2019-02-19T07:12:38.640Z,36.50
2019-02-19T07:15:04.871Z,36.60
2019-02-19T07:17:31.083Z,36.50
2019-02-19T07:19:57.352Z,36.60
2019-02-19T07:22:24.217Z,36.70
2019-02-19T07:24:50.600Z,36.60
2019-02-19T07:27:16.879Z,36.80
2019-02-19T07:29:43.094Z,36.80
2019-02-19T07:32:09.491Z,37.00
2019-02-19T07:34:35.687Z,37.10
2019-02-19T07:37:01.957Z,37.10
2019-02-19T07:39:28.195Z,37.10
2019-02-19T07:41:54.441Z,37.20
2019-02-19T07:44:21.607Z,37.30
2019-02-19T07:46:47.908Z,37.20
2019-02-19T07:49:14.116Z,37.20
2019-02-19T07:51:40.363Z,37.20
2019-02-19T07:54:06.878Z,37.20
2019-02-19T07:56:33.235Z,37.10
2019-02-19T07:58:59.648Z,37.00
2019-02-19T08:01:27.535Z,37.30
2019-02-19T08:03:53.739Z,37.10
2019-02-19T08:06:20.007Z,37.00
2019-02-19T08:08:46.432Z,37.10
2019-02-19T08:11:12.847Z,37.20
2019-02-19T08:13:39.082Z,37.10
2019-02-19T08:16:05.515Z,37.10
2019-02-19T08:18:33.365Z,37.30
2019-02-19T08:20:59.586Z,37.20
2019-02-19T08:23:25.784Z,37.20
2019-02-19T08:25:52.298Z,37.20
2019-02-19T08:28:18.689Z,37.20
2019-02-19T08:30:44.908Z,37.30
2019-02-19T08:33:11.152Z,37.30
2019-02-19T08:35:37.386Z,37.30
2019-02-19T08:38:03.678Z,37.30
2019-02-19T08:40:30.283Z,37.30
2019-02-19T08:42:56.684Z,37.30
2019-02-19T08:45:22.907Z,37.30
2019-02-19T08:47:49.367Z,37.30
2019-02-19T08:50:15.781Z,37.30
2019-02-19T08:52:43.637Z,37.60
2019-02-19T08:55:09.861Z,37.40
2019-02-19T08:57:36.338Z,37.30
2019-02-19T09:00:02.712Z,37.40
2019-02-19T09:02:28.955Z,37.50
2019-02-19T09:04:56.834Z,37.50
2019-02-19T09:07:23.046Z,37.40
2019-02-19T09:09:49.304Z,37.30
2019-02-19T09:12:15.523Z,37.40
2019-02-19T09:14:41.724Z,37.30
2019-02-19T09:17:08.632Z,37.30
2019-02-19T09:19:35.056Z,37.50
2019-02-19T09:22:01.288Z,37.40
2019-02-19T09:24:27.663Z,37.50
2019-02-19T09:26:53.904Z,37.30
2019-02-19T09:29:20.135Z,37.40
2019-02-19T09:31:47.992Z,37.60
2019-02-19T09:34:14.264Z,37.50
2019-02-19T09:36:40.696Z,37.50
2019-02-19T09:39:07.136Z,37.50
2019-02-19T09:41:33.544Z,38.10
2019-02-19T09:43:59.760Z,37.50
2019-02-19T09:46:26.010Z,37.60
2019-02-19T09:48:52.420Z,37.60
2019-02-19T09:51:18.684Z,37.60
2019-02-19T09:53:45.068Z,37.80
2019-02-19T09:56:11.328Z,37.70
2019-02-19T09:58:37.794Z,37.60
2019-02-19T10:01:04.180Z,37.80
2019-02-19T10:03:30.640Z,37.80
2019-02-19T10:05:57.038Z,38.40
2019-02-19T10:08:23.309Z,37.70
2019-02-19T10:10:49.723Z,37.80
2019-02-19T10:13:16.154Z,37.70
2019-02-19T10:15:42.604Z,37.80
2019-02-19T10:18:10.485Z,37.60
2019-02-19T10:20:35.473Z,37.60
2019-02-19T10:23:01.871Z,37.60
2019-02-19T10:25:28.076Z,37.60
2019-02-19T10:27:54.331Z,37.60
2019-02-19T10:30:20.548Z,37.60
2019-02-19T10:32:47.606Z,37.70
2019-02-19T10:35:13.823Z,37.60
2019-02-19T10:37:40.300Z,37.50
2019-02-19T10:40:06.503Z,38.10
2019-02-19T10:42:33.550Z,37.60
2019-02-19T10:44:59.754Z,37.40
2019-02-19T10:47:25.987Z,37.30
2019-02-19T10:49:52.224Z,37.30
2019-02-19T10:52:18.477Z,37.30
2019-02-19T10:54:44.898Z,37.30
2019-02-19T10:57:11.983Z,37.30
2019-02-19T10:59:38.626Z,37.10
2019-02-19T11:02:05.026Z,37.10
2019-02-19T11:04:31.315Z,37.20
2019-02-19T11:06:57.905Z,37.00
2019-02-19T11:09:24.287Z,37.10
2019-02-19T11:11:50.521Z,37.00
2019-02-19T11:14:16.783Z,37.00
2019-02-19T11:16:43.178Z,36.90
2019-02-19T11:19:09.459Z,36.90
2019-02-19T11:21:36.444Z,36.90
2019-02-19T11:24:02.944Z,37.00
2019-02-19T11:26:29.330Z,36.90
2019-02-19T11:28:55.603Z,36.80
2019-02-19T11:31:22.041Z,36.80
2019-02-19T11:33:48.218Z,36.80
2019-02-19T11:36:14.446Z,36.80
2019-02-19T11:38:40.923Z,36.80
2019-02-19T11:41:07.317Z,36.70
2019-02-19T11:43:33.931Z,36.70
2019-02-19T11:46:00.175Z,36.70
2019-02-19T11:48:26.450Z,36.70
2019-02-19T11:50:52.843Z,36.60
2019-02-19T11:53:19.110Z,36.60
2019-02-19T11:55:45.502Z,36.60
2019-02-19T11:58:11.979Z,36.60
2019-02-19T12:00:38.382Z,36.60
2019-02-19T12:03:04.608Z,36.50
2019-02-19T12:05:31.658Z,36.80
2019-02-19T12:07:58.088Z,36.60
2019-02-19T12:10:24.521Z,36.50
2019-02-19T12:12:50.748Z,36.50
2019-02-19T12:15:19.152Z,36.50
2019-02-19T12:17:43.632Z,36.50
2019-02-19T12:20:10.036Z,36.40
2019-02-19T12:22:36.310Z,36.50
2019-02-19T12:25:02.691Z,36.50
2019-02-19T12:27:28.971Z,36.40
2019-02-19T12:29:55.403Z,36.40
2019-02-19T12:32:22.056Z,36.40
2019-02-19T12:34:48.475Z,36.40
2019-02-19T12:37:14.911Z,36.40
2019-02-19T12:39:41.308Z,36.30
2019-02-19T12:42:07.774Z,36.30
2019-02-19T12:44:34.413Z,36.30
2019-02-19T12:47:00.792Z,36.40
2019-02-19T12:49:27.245Z,36.40
2019-02-19T12:51:55.425Z,36.40
2019-02-19T12:54:19.961Z,36.30
2019-02-19T12:56:46.359Z,36.40
2019-02-19T12:59:12.765Z,36.40
2019-02-19T13:01:41.626Z,36.60
2019-02-19T13:04:07.846Z,36.40
2019-02-19T13:06:34.124Z,36.30
2019-02-19T13:09:01.147Z,36.60
2019-02-19T13:11:28.053Z,36.40
2019-02-19T13:13:54.302Z,36.40
2019-02-19T13:16:20.910Z,36.30
2019-02-19T13:18:47.316Z,36.40
2019-02-19T13:21:14.600Z,36.50
2019-02-19T13:23:41.014Z,36.30
2019-02-19T13:26:07.419Z,36.30
2019-02-19T13:28:33.899Z,36.30
2019-02-19T13:31:00.115Z,36.30
2019-02-19T13:33:26.762Z,36.20
2019-02-19T13:35:53.143Z,36.80
2019-02-19T13:38:19.391Z,36.10
2019-02-19T13:40:45.617Z,36.10
2019-02-19T13:43:12.085Z,36.10
2019-02-19T13:45:38.533Z,36.10
2019-02-19T13:48:06.126Z,36.20
2019-02-19T13:50:31.564Z,36.10
2019-02-19T13:52:57.996Z,36.10
2019-02-19T13:55:24.435Z,36.80
2019-02-19T13:57:50.682Z,36.10
2019-02-19T14:00:17.059Z,36.10
2019-02-19T14:02:43.323Z,36.10
2019-02-19T14:05:09.542Z,36.10
2019-02-19T14:07:36.006Z,36.10
2019-02-19T14:10:02.440Z,36.10
2019-02-19T14:12:28.831Z,36.10
2019-02-19T14:14:55.067Z,36.00
2019-02-19T14:17:21.329Z,36.00
2019-02-19T14:19:47.773Z,36.10
2019-02-19T14:22:14.605Z,36.00
2019-02-19T14:24:41.243Z,35.90
2019-02-19T14:27:07.639Z,35.90
2019-02-19T14:29:33.873Z,35.90
2019-02-19T14:32:00.306Z,35.90
2019-02-19T14:34:26.513Z,36.50
2019-02-19T14:36:52.802Z,35.90
2019-02-19T14:39:19.212Z,35.70
2019-02-19T14:41:45.434Z,35.70
2019-02-19T14:44:11.835Z,35.70
2019-02-19T14:46:38.329Z,35.80
2019-02-19T14:49:04.701Z,35.60
2019-02-19T14:51:30.960Z,35.70
2019-02-19T14:53:57.411Z,35.60
2019-02-19T14:56:23.827Z,35.60
2019-02-19T14:58:50.027Z,35.40
2019-02-19T15:01:16.277Z,35.40
2019-02-19T15:03:42.690Z,35.40
2019-02-19T15:06:09.171Z,35.30
2019-02-19T15:08:35.578Z,35.40
2019-02-19T15:11:01.826Z,35.20
2019-02-19T15:13:28.266Z,35.20
2019-02-19T15:15:54.651Z,35.10
2019-02-19T15:18:20.928Z,35.20
2019-02-19T15:20:47.336Z,35.30
2019-02-19T15:23:13.555Z,35.10
2019-02-19T15:25:41.444Z,35.30
2019-02-19T15:28:07.874Z,35.10
2019-02-19T15:30:34.294Z,35.10
2019-02-19T15:33:00.734Z,35.10
2019-02-19T15:35:26.982Z,35.10
2019-02-19T15:37:53.383Z,35.10
2019-02-19T15:40:19.622Z,35.10
2019-02-19T15:42:45.844Z,35.10
2019-02-19T15:45:12.110Z,35.10
2019-02-19T15:47:38.562Z,35.10
2019-02-19T15:50:04.935Z,35.10
2019-02-19T15:52:31.359Z,35.10
2019-02-19T15:54:57.607Z,35.10
2019-02-19T15:57:24.043Z,35.00
2019-02-19T15:59:50.282Z,35.00
2019-02-19T16:02:16.678Z,35.00
2019-02-19T16:04:42.993Z,35.10
2019-02-19T16:07:09.387Z,35.10
2019-02-19T16:09:35.768Z,35.00
2019-02-19T16:12:02.018Z,35.00
2019-02-19T16:14:28.472Z,35.00
2019-02-19T16:16:54.881Z,35.00
2019-02-19T16:19:21.143Z,35.00
2019-02-19T16:21:47.575Z,35.00
2019-02-19T16:24:14.031Z,35.00
2019-02-19T16:26:40.647Z,34.90
2019-02-19T16:29:07.066Z,35.00
2019-02-19T16:31:33.253Z,34.90
2019-02-19T16:33:59.487Z,34.90
2019-02-19T16:36:25.744Z,35.00
2019-02-19T16:38:52.163Z,35.00
2019-02-19T16:41:18.595Z,35.00
2019-02-19T16:43:45.267Z,34.90
2019-02-19T16:46:11.687Z,35.00
2019-02-19T16:48:38.134Z,35.00
2019-02-19T16:51:04.545Z,34.90
2019-02-19T16:53:31.205Z,35.00
2019-02-19T16:55:57.455Z,34.90
2019-02-19T16:58:24.073Z,34.90
2019-02-19T17:00:50.853Z,34.90
2019-02-19T17:03:16.925Z,34.90
2019-02-19T17:05:43.363Z,34.90
2019-02-19T17:08:09.779Z,34.90
2019-02-19T17:10:36.203Z,35.00
2019-02-19T17:13:02.632Z,35.00
2019-02-19T17:15:30.093Z,35.00
2019-02-19T17:17:55.537Z,35.00
2019-02-19T17:20:29.310Z,34.90
2019-02-19T17:22:48.367Z,34.90
2019-02-19T17:25:14.572Z,35.10
2019-02-19T17:27:40.837Z,35.10
2019-02-19T17:30:07.271Z,35.10
2019-02-19T17:32:33.678Z,35.00
2019-02-19T17:34:59.919Z,35.10
2019-02-19T17:37:26.135Z,35.00
2019-02-19T17:39:53.066Z,35.60
2019-02-19T17:42:19.257Z,35.00
2019-02-19T17:44:45.664Z,35.10
2019-02-19T17:47:14.275Z,35.10
2019-02-19T17:49:38.331Z,35.00
2019-02-19T17:52:04.520Z,35.70
2019-02-19T17:54:30.777Z,35.10
2019-02-19T17:56:57.219Z,35.10
2019-02-19T17:59:23.444Z,35.10
2019-02-19T18:01:49.856Z,35.10
2019-02-19T18:04:16.093Z,35.10
2019-02-19T18:06:43.173Z,35.30
2019-02-19T18:09:09.610Z,35.10
2019-02-19T18:11:36.020Z,35.00
2019-02-19T18:14:02.224Z,35.10
2019-02-19T18:16:28.662Z,35.10
2019-02-19T18:18:54.899Z,35.10
2019-02-19T18:21:21.119Z,35.10
2019-02-19T18:23:47.358Z,35.10
2019-02-19T18:26:13.601Z,35.10
2019-02-19T18:28:39.848Z,35.10
2019-02-19T18:31:06.267Z,35.10
2019-02-19T18:33:32.674Z,35.00
2019-02-19T18:36:00.561Z,35.20
2019-02-19T18:38:26.768Z,34.90
2019-02-19T18:40:53.000Z,34.90
2019-02-19T18:43:19.216Z,35.00
2019-02-19T18:45:46.106Z,35.00
2019-02-19T18:48:12.517Z,35.00
2019-02-19T18:50:38.922Z,35.00
2019-02-19T18:53:05.173Z,34.90
2019-02-19T18:55:31.431Z,34.90
2019-02-19T18:57:58.481Z,35.00
2019-02-19T19:00:24.862Z,35.00
2019-02-19T19:02:51.307Z,35.00
2019-02-19T19:05:17.775Z,35.00
2019-02-19T19:07:44.207Z,35.00
2019-02-19T19:10:10.626Z,35.00
2019-02-19T19:12:37.027Z,35.00
2019-02-19T19:15:03.276Z,35.00
2019-02-19T19:17:29.523Z,35.00
2019-02-19T19:19:55.930Z,35.00
2019-02-19T19:22:22.984Z,35.20
2019-02-19T19:24:50.017Z,35.20
2019-02-19T19:27:16.277Z,35.00
2019-02-19T19:29:42.659Z,35.10
2019-02-19T19:32:08.947Z,35.00
2019-02-19T19:34:35.335Z,35.00
2019-02-19T19:37:03.083Z,35.20
2019-02-19T19:39:29.471Z,34.90
2019-02-19T19:41:55.891Z,34.90
2019-02-19T19:44:24.901Z,35.10
2019-02-19T19:46:49.352Z,34.90
2019-02-19T19:49:16.450Z,35.10
2019-02-19T19:51:42.831Z,34.90
2019-02-19T19:54:10.696Z,34.90
2019-02-19T19:56:36.962Z,34.80
2019-02-19T19:59:03.206Z,34.90
2019-02-19T20:01:29.582Z,34.90
2019-02-19T20:03:57.446Z,35.10
2019-02-19T20:06:23.680Z,34.90
2019-02-19T20:08:50.167Z,34.90
2019-02-19T20:11:16.558Z,35.00
2019-02-19T20:13:42.774Z,34.90
2019-02-19T20:16:09.048Z,34.90
2019-02-19T20:18:39.045Z,34.90
2019-02-19T20:21:01.921Z,34.80
2019-02-19T20:23:28.319Z,34.90
2019-02-19T20:25:54.752Z,34.90
2019-02-19T20:28:21.187Z,34.90
2019-02-19T20:30:48.221Z,35.20
2019-02-19T20:33:14.499Z,35.00
2019-02-19T20:35:40.899Z,35.50
2019-02-19T20:38:07.328Z,34.90
2019-02-19T20:40:33.768Z,34.80
2019-02-19T20:43:00.237Z,34.90
2019-02-19T20:45:26.616Z,34.90
2019-02-19T20:47:52.851Z,34.90
2019-02-19T20:50:19.280Z,34.80
2019-02-19T20:52:45.749Z,34.80
2019-02-19T20:55:12.151Z,34.90
2019-02-19T20:57:38.820Z,34.80
2019-02-19T21:00:05.094Z,34.80
2019-02-19T21:02:31.469Z,34.90
2019-02-19T21:04:57.901Z,34.80
2019-02-19T21:07:24.099Z,34.70
2019-02-19T21:09:50.350Z,34.70
2019-02-19T21:12:16.573Z,34.70
2019-02-19T21:14:42.800Z,34.70
2019-02-19T21:17:09.047Z,34.70
2019-02-19T21:19:35.445Z,34.70
2019-02-19T21:22:01.768Z,34.60
2019-02-19T21:24:28.127Z,34.70
2019-02-19T21:26:54.551Z,34.70
2019-02-19T21:29:20.785Z,34.70
2019-02-19T21:31:47.655Z,34.70
2019-02-19T21:34:14.069Z,34.70
2019-02-19T21:36:40.498Z,34.70
2019-02-19T21:39:06.707Z,34.60
2019-02-19T21:41:33.419Z,34.60
2019-02-19T21:43:59.811Z,34.60
2019-02-19T21:46:26.241Z,34.60
2019-02-19T21:48:52.687Z,34.60
2019-02-19T21:51:19.101Z,34.60
2019-02-19T21:53:45.528Z,34.60
2019-02-19T21:56:11.748Z,34.60
2019-02-19T21:58:39.630Z,34.90
2019-02-19T22:01:05.839Z,34.60
2019-02-19T22:03:32.060Z,34.60
2019-02-19T22:05:59.946Z,34.80
2019-02-19T22:08:26.406Z,34.60
2019-02-19T22:10:53.928Z,34.70
2019-02-19T22:13:19.251Z,34.70
2019-02-19T22:15:45.909Z,34.70
2019-02-19T22:18:12.299Z,34.60
2019-02-19T22:20:38.573Z,34.60
2019-02-19T22:23:05.007Z,34.70
2019-02-19T22:25:31.402Z,34.70
2019-02-19T22:27:58.077Z,34.70
2019-02-19T22:30:24.453Z,34.70
2019-02-19T22:32:50.690Z,34.70
2019-02-19T22:35:16.976Z,34.70
2019-02-19T22:37:43.372Z,34.80
2019-02-19T22:40:09.588Z,34.70
2019-02-19T22:42:35.843Z,34.70
2019-02-19T22:45:02.246Z,34.70
2019-02-19T22:47:30.154Z,35.00
2019-02-19T22:49:56.366Z,34.70
2019-02-19T22:52:22.780Z,34.70
2019-02-19T22:54:49.047Z,34.70
2019-02-19T22:57:15.459Z,34.70
2019-02-19T22:59:41.871Z,34.60
2019-02-19T23:02:08.304Z,34.60
2019-02-19T23:04:34.596Z,34.60
2019-02-19T23:07:00.963Z,34.60
2019-02-19T23:09:28.816Z,34.70
2019-02-19T23:11:55.057Z,34.60
2019-02-19T23:14:21.296Z,34.60
2019-02-19T23:16:47.559Z,34.60
2019-02-19T23:19:14.016Z,34.60
2019-02-19T23:21:40.408Z,34.60
2019-02-19T23:24:06.803Z,34.50
2019-02-19T23:26:33.079Z,34.60
2019-02-19T23:28:59.488Z,34.60
2019-02-19T23:31:25.938Z,34.50
2019-02-19T23:33:52.332Z,34.50
2019-02-19T23:36:18.575Z,34.50
2019-02-19T23:38:46.438Z,34.70
2019-02-19T23:41:12.660Z,34.50
2019-02-19T23:43:39.095Z,34.50
2019-02-19T23:46:06.958Z,34.70
2019-02-19T23:48:33.186Z,34.40
2019-02-19T23:51:00.207Z,34.50
2019-02-19T23:53:26.480Z,34.50
2019-02-19T23:55:52.716Z,34.40
2019-02-19T23:58:19.763Z,34.70
